sensor_id;sensor_type;location;lat;lon;timestamp;P1;durP1;ratioP1;P2;durP2;ratioP2
21424;SDS011;10873;51.132;16.848;2023-02-15T00:00:04;15.85;;;11.13;;
21424;SDS011;10873;51.132;16.848;2023-02-15T00:02:51;18.98;;;12.02;;
21424;SDS011;10873;51.132;16.848;2023-02-15T00:05:17;15.38;;;11.50;;
21424;SDS011;10873;51.132;16.848;2023-02-15T00:07:43;17.23;;;11.15;;
21424;SDS011;10873;51.132;16.848;2023-02-15T00:10:11;16.77;;;11.80;;
21424;SDS011;10873;51.132;16.848;2023-02-15T00:12:37;16.05;;;10.80;;
21424;SDS011;10873;51.132;16.848;2023-02-15T00:15:03;16.60;;;11.43;;
21424;SDS011;10873;51.132;16.848;2023-02-15T00:17:30;15.10;;;11.13;;
21424;SDS011;10873;51.132;16.848;2023-02-15T00:19:55;15.75;;;10.18;;
21424;SDS011;10873;51.132;16.848;2023-02-15T00:22:22;16.90;;;11.63;;
21424;SDS011;10873;51.132;16.848;2023-02-15T00:24:47;14.50;;;10.93;;
21424;SDS011;10873;51.132;16.848;2023-02-15T00:27:16;16.27;;;11.07;;
21424;SDS011;10873;51.132;16.848;2023-02-15T00:29:42;15.82;;;11.60;;
21424;SDS011;10873;51.132;16.848;2023-02-15T00:32:08;17.60;;;11.38;;
21424;SDS011;10873;51.132;16.848;2023-02-15T00:34:34;15.30;;;10.85;;
21424;SDS011;10873;51.132;16.848;2023-02-15T00:37:00;15.38;;;11.23;;
21424;SDS011;10873;51.132;16.848;2023-02-15T00:39:26;17.92;;;11.15;;
21424;SDS011;10873;51.132;16.848;2023-02-15T00:41:54;15.55;;;11.55;;
21424;SDS011;10873;51.132;16.848;2023-02-15T00:44:21;16.15;;;11.63;;
21424;SDS011;10873;51.132;16.848;2023-02-15T00:46:47;16.02;;;11.02;;
21424;SDS011;10873;51.132;16.848;2023-02-15T00:49:13;16.40;;;11.90;;
21424;SDS011;10873;51.132;16.848;2023-02-15T00:51:39;15.02;;;11.43;;
21424;SDS011;10873;51.132;16.848;2023-02-15T00:54:05;16.67;;;12.02;;
21424;SDS011;10873;51.132;16.848;2023-02-15T00:56:32;14.55;;;10.98;;
21424;SDS011;10873;51.132;16.848;2023-02-15T00:58:57;16.40;;;11.55;;
21424;SDS011;10873;51.132;16.848;2023-02-15T01:01:25;15.27;;;10.82;;
21424;SDS011;10873;51.132;16.848;2023-02-15T01:03:51;15.93;;;11.25;;
21424;SDS011;10873;51.132;16.848;2023-02-15T01:06:17;15.00;;;10.40;;
21424;SDS011;10873;51.132;16.848;2023-02-15T01:08:43;15.63;;;11.60;;
21424;SDS011;10873;51.132;16.848;2023-02-15T01:11:11;13.90;;;10.30;;
21424;SDS011;10873;51.132;16.848;2023-02-15T01:13:38;15.25;;;11.25;;
21424;SDS011;10873;51.132;16.848;2023-02-15T01:16:05;14.40;;;10.98;;
21424;SDS011;10873;51.132;16.848;2023-02-15T01:18:33;13.88;;;10.60;;
21424;SDS011;10873;51.132;16.848;2023-02-15T01:21:00;15.82;;;10.80;;
21424;SDS011;10873;51.132;16.848;2023-02-15T01:23:33;16.42;;;11.32;;
21424;SDS011;10873;51.132;16.848;2023-02-15T01:26:01;17.00;;;12.00;;
21424;SDS011;10873;51.132;16.848;2023-02-15T01:28:26;16.23;;;11.10;;
21424;SDS011;10873;51.132;16.848;2023-02-15T01:30:53;19.33;;;12.02;;
21424;SDS011;10873;51.132;16.848;2023-02-15T01:33:18;18.60;;;12.20;;
21424;SDS011;10873;51.132;16.848;2023-02-15T01:35:46;17.23;;;12.25;;
21424;SDS011;10873;51.132;16.848;2023-02-15T01:38:12;17.40;;;12.52;;
21424;SDS011;10873;51.132;16.848;2023-02-15T01:40:38;18.50;;;12.88;;
21424;SDS011;10873;51.132;16.848;2023-02-15T01:43:07;16.08;;;12.05;;
21424;SDS011;10873;51.132;16.848;2023-02-15T01:45:35;16.13;;;12.07;;
21424;SDS011;10873;51.132;16.848;2023-02-15T01:48:03;16.73;;;12.20;;
21424;SDS011;10873;51.132;16.848;2023-02-15T01:50:32;18.10;;;12.80;;
21424;SDS011;10873;51.132;16.848;2023-02-15T01:53:03;17.55;;;12.70;;
21424;SDS011;10873;51.132;16.848;2023-02-15T01:55:38;19.75;;;13.65;;
21424;SDS011;10873;51.132;16.848;2023-02-15T01:58:06;18.27;;;13.23;;
21424;SDS011;10873;51.132;16.848;2023-02-15T02:00:33;17.00;;;12.38;;
21424;SDS011;10873;51.132;16.848;2023-02-15T02:03:00;16.75;;;12.60;;
21424;SDS011;10873;51.132;16.848;2023-02-15T02:05:28;15.90;;;12.15;;
21424;SDS011;10873;51.132;16.848;2023-02-15T02:07:56;17.08;;;12.80;;
21424;SDS011;10873;51.132;16.848;2023-02-15T02:10:25;18.27;;;13.40;;
21424;SDS011;10873;51.132;16.848;2023-02-15T02:12:52;17.80;;;12.85;;
21424;SDS011;10873;51.132;16.848;2023-02-15T02:15:24;16.60;;;12.85;;
21424;SDS011;10873;51.132;16.848;2023-02-15T02:17:58;18.05;;;13.00;;
21424;SDS011;10873;51.132;16.848;2023-02-15T02:24:08;16.58;;;12.40;;
21424;SDS011;10873;51.132;16.848;2023-02-15T02:27:14;16.98;;;12.82;;
21424;SDS011;10873;51.132;16.848;2023-02-15T02:29:54;16.83;;;11.82;;
21424;SDS011;10873;51.132;16.848;2023-02-15T02:35:52;16.75;;;12.68;;
21424;SDS011;10873;51.132;16.848;2023-02-15T02:38:28;18.48;;;13.38;;
21424;SDS011;10873;51.132;16.848;2023-02-15T02:41:07;16.63;;;12.88;;
21424;SDS011;10873;51.132;16.848;2023-02-15T02:43:44;16.67;;;12.65;;
21424;SDS011;10873;51.132;16.848;2023-02-15T02:46:15;15.77;;;12.23;;
21424;SDS011;10873;51.132;16.848;2023-02-15T02:48:47;16.80;;;12.38;;
21424;SDS011;10873;51.132;16.848;2023-02-15T02:51:14;16.30;;;11.93;;
21424;SDS011;10873;51.132;16.848;2023-02-15T02:53:47;15.95;;;12.10;;
21424;SDS011;10873;51.132;16.848;2023-02-15T02:56:17;15.10;;;11.77;;
21424;SDS011;10873;51.132;16.848;2023-02-15T02:58:47;16.60;;;12.48;;
21424;SDS011;10873;51.132;16.848;2023-02-15T03:01:17;15.25;;;11.63;;
21424;SDS011;10873;51.132;16.848;2023-02-15T03:03:49;16.45;;;11.60;;
21424;SDS011;10873;51.132;16.848;2023-02-15T03:06:18;15.40;;;11.70;;
21424;SDS011;10873;51.132;16.848;2023-02-15T03:08:49;16.38;;;12.10;;
21424;SDS011;10873;51.132;16.848;2023-02-15T03:11:19;16.25;;;11.88;;
21424;SDS011;10873;51.132;16.848;2023-02-15T03:13:46;14.93;;;11.63;;
21424;SDS011;10873;51.132;16.848;2023-02-15T03:16:14;19.83;;;13.57;;
21424;SDS011;10873;51.132;16.848;2023-02-15T03:18:54;15.77;;;11.98;;
21424;SDS011;10873;51.132;16.848;2023-02-15T03:21:24;15.85;;;12.05;;
21424;SDS011;10873;51.132;16.848;2023-02-15T03:23:56;15.82;;;12.13;;
21424;SDS011;10873;51.132;16.848;2023-02-15T03:26:25;15.35;;;11.38;;
21424;SDS011;10873;51.132;16.848;2023-02-15T03:28:54;17.45;;;12.27;;
21424;SDS011;10873;51.132;16.848;2023-02-15T03:31:23;16.48;;;11.68;;
21424;SDS011;10873;51.132;16.848;2023-02-15T03:33:55;16.48;;;12.32;;
21424;SDS011;10873;51.132;16.848;2023-02-15T03:36:26;14.38;;;11.50;;
21424;SDS011;10873;51.132;16.848;2023-02-15T03:38:58;14.82;;;11.50;;
21424;SDS011;10873;51.132;16.848;2023-02-15T03:41:34;16.77;;;11.35;;
21424;SDS011;10873;51.132;16.848;2023-02-15T03:44:09;16.20;;;11.45;;
21424;SDS011;10873;51.132;16.848;2023-02-15T03:46:40;15.18;;;11.43;;
21424;SDS011;10873;51.132;16.848;2023-02-15T03:49:14;16.40;;;12.32;;
21424;SDS011;10873;51.132;16.848;2023-02-15T03:51:45;15.15;;;11.27;;
21424;SDS011;10873;51.132;16.848;2023-02-15T03:54:15;15.20;;;11.13;;
21424;SDS011;10873;51.132;16.848;2023-02-15T03:57:03;15.35;;;12.02;;
21424;SDS011;10873;51.132;16.848;2023-02-15T03:59:48;15.32;;;11.13;;
21424;SDS011;10873;51.132;16.848;2023-02-15T04:02:33;14.77;;;11.20;;
21424;SDS011;10873;51.132;16.848;2023-02-15T04:05:05;15.30;;;11.85;;
21424;SDS011;10873;51.132;16.848;2023-02-15T04:07:31;13.40;;;10.60;;
21424;SDS011;10873;51.132;16.848;2023-02-15T04:09:58;15.13;;;11.15;;
21424;SDS011;10873;51.132;16.848;2023-02-15T04:12:42;18.40;;;11.98;;
21424;SDS011;10873;51.132;16.848;2023-02-15T04:15:11;14.32;;;11.00;;
21424;SDS011;10873;51.132;16.848;2023-02-15T04:17:56;16.52;;;10.93;;
21424;SDS011;10873;51.132;16.848;2023-02-15T04:20:23;15.95;;;11.20;;
21424;SDS011;10873;51.132;16.848;2023-02-15T04:23:08;14.95;;;10.95;;
21424;SDS011;10873;51.132;16.848;2023-02-15T04:25:53;14.32;;;10.98;;
21424;SDS011;10873;51.132;16.848;2023-02-15T04:28:18;15.32;;;11.75;;
21424;SDS011;10873;51.132;16.848;2023-02-15T04:30:46;15.82;;;11.52;;
21424;SDS011;10873;51.132;16.848;2023-02-15T04:33:12;14.50;;;11.07;;
21424;SDS011;10873;51.132;16.848;2023-02-15T04:35:40;18.15;;;12.13;;
21424;SDS011;10873;51.132;16.848;2023-02-15T04:38:06;15.90;;;11.90;;
21424;SDS011;10873;51.132;16.848;2023-02-15T04:40:32;16.08;;;11.55;;
21424;SDS011;10873;51.132;16.848;2023-02-15T04:42:58;16.65;;;11.77;;
21424;SDS011;10873;51.132;16.848;2023-02-15T04:45:26;19.73;;;12.55;;
21424;SDS011;10873;51.132;16.848;2023-02-15T04:47:53;15.40;;;11.57;;
21424;SDS011;10873;51.132;16.848;2023-02-15T04:50:19;16.38;;;11.98;;
21424;SDS011;10873;51.132;16.848;2023-02-15T04:56:44;17.20;;;12.30;;
21424;SDS011;10873;51.132;16.848;2023-02-15T04:59:24;17.92;;;13.02;;
21424;SDS011;10873;51.132;16.848;2023-02-15T05:01:50;16.58;;;11.95;;
21424;SDS011;10873;51.132;16.848;2023-02-15T05:04:16;18.55;;;13.07;;
21424;SDS011;10873;51.132;16.848;2023-02-15T05:06:42;18.90;;;12.43;;
21424;SDS011;10873;51.132;16.848;2023-02-15T05:09:08;19.30;;;12.55;;
21424;SDS011;10873;51.132;16.848;2023-02-15T05:11:37;19.50;;;13.13;;
21424;SDS011;10873;51.132;16.848;2023-02-15T05:14:03;17.98;;;12.68;;
21424;SDS011;10873;51.132;16.848;2023-02-15T05:16:29;18.30;;;12.38;;
21424;SDS011;10873;51.132;16.848;2023-02-15T05:18:55;18.63;;;13.02;;
21424;SDS011;10873;51.132;16.848;2023-02-15T05:21:21;18.75;;;12.75;;
21424;SDS011;10873;51.132;16.848;2023-02-15T05:23:47;17.90;;;13.10;;
21424;SDS011;10873;51.132;16.848;2023-02-15T05:26:15;19.88;;;13.82;;
21424;SDS011;10873;51.132;16.848;2023-02-15T05:29:03;20.85;;;14.00;;
21424;SDS011;10873;51.132;16.848;2023-02-15T05:31:30;19.83;;;14.20;;
21424;SDS011;10873;51.132;16.848;2023-02-15T05:33:56;19.80;;;14.27;;
21424;SDS011;10873;51.132;16.848;2023-02-15T05:36:23;21.02;;;14.65;;
21424;SDS011;10873;51.132;16.848;2023-02-15T05:38:49;18.17;;;12.38;;
21424;SDS011;10873;51.132;16.848;2023-02-15T05:41:15;21.48;;;13.80;;
21424;SDS011;10873;51.132;16.848;2023-02-15T05:43:41;24.60;;;14.10;;
21424;SDS011;10873;51.132;16.848;2023-02-15T05:46:08;19.95;;;13.60;;
21424;SDS011;10873;51.132;16.848;2023-02-15T05:48:35;20.02;;;13.75;;
21424;SDS011;10873;51.132;16.848;2023-02-15T05:51:02;19.98;;;13.30;;
21424;SDS011;10873;51.132;16.848;2023-02-15T05:53:30;18.27;;;13.60;;
21424;SDS011;10873;51.132;16.848;2023-02-15T05:55:58;22.30;;;13.20;;
21424;SDS011;10873;51.132;16.848;2023-02-15T05:58:24;19.88;;;13.70;;
21424;SDS011;10873;51.132;16.848;2023-02-15T06:00:51;20.63;;;14.30;;
21424;SDS011;10873;51.132;16.848;2023-02-15T06:03:18;21.25;;;13.70;;
21424;SDS011;10873;51.132;16.848;2023-02-15T06:05:44;21.95;;;13.23;;
21424;SDS011;10873;51.132;16.848;2023-02-15T06:08:10;20.92;;;12.82;;
21424;SDS011;10873;51.132;16.848;2023-02-15T06:10:36;19.88;;;13.00;;
21424;SDS011;10873;51.132;16.848;2023-02-15T06:13:02;19.58;;;13.30;;
21424;SDS011;10873;51.132;16.848;2023-02-15T06:15:28;19.45;;;13.35;;
21424;SDS011;10873;51.132;16.848;2023-02-15T06:17:54;21.52;;;13.60;;
21424;SDS011;10873;51.132;16.848;2023-02-15T06:20:21;19.05;;;13.07;;
21424;SDS011;10873;51.132;16.848;2023-02-15T06:22:47;22.40;;;14.75;;
21424;SDS011;10873;51.132;16.848;2023-02-15T06:25:13;21.50;;;13.73;;
21424;SDS011;10873;51.132;16.848;2023-02-15T06:27:40;22.20;;;14.02;;
21424;SDS011;10873;51.132;16.848;2023-02-15T06:30:08;24.08;;;14.02;;
21424;SDS011;10873;51.132;16.848;2023-02-15T06:32:34;19.35;;;12.77;;
21424;SDS011;10873;51.132;16.848;2023-02-15T06:35:01;19.70;;;13.18;;
21424;SDS011;10873;51.132;16.848;2023-02-15T06:37:28;19.00;;;13.55;;
21424;SDS011;10873;51.132;16.848;2023-02-15T06:39:55;21.10;;;13.93;;
21424;SDS011;10873;51.132;16.848;2023-02-15T06:42:20;20.65;;;12.93;;
21424;SDS011;10873;51.132;16.848;2023-02-15T06:44:47;18.73;;;13.55;;
21424;SDS011;10873;51.132;16.848;2023-02-15T06:47:13;19.02;;;13.57;;
21424;SDS011;10873;51.132;16.848;2023-02-15T06:49:39;17.80;;;13.30;;
21424;SDS011;10873;51.132;16.848;2023-02-15T06:52:05;18.33;;;12.75;;
21424;SDS011;10873;51.132;16.848;2023-02-15T06:54:33;19.48;;;13.55;;
21424;SDS011;10873;51.132;16.848;2023-02-15T06:56:58;22.17;;;14.85;;
21424;SDS011;10873;51.132;16.848;2023-02-15T06:59:25;27.23;;;17.25;;
21424;SDS011;10873;51.132;16.848;2023-02-15T07:01:50;29.33;;;20.75;;
21424;SDS011;10873;51.132;16.848;2023-02-15T07:04:17;32.28;;;21.58;;
21424;SDS011;10873;51.132;16.848;2023-02-15T07:06:42;34.78;;;23.88;;
21424;SDS011;10873;51.132;16.848;2023-02-15T07:09:09;37.20;;;25.60;;
21424;SDS011;10873;51.132;16.848;2023-02-15T07:11:36;36.42;;;26.40;;
21424;SDS011;10873;51.132;16.848;2023-02-15T07:14:21;38.63;;;27.48;;
21424;SDS011;10873;51.132;16.848;2023-02-15T07:16:47;37.80;;;27.02;;
21424;SDS011;10873;51.132;16.848;2023-02-15T07:19:13;36.28;;;26.30;;
21424;SDS011;10873;51.132;16.848;2023-02-15T07:21:39;35.20;;;26.05;;
21424;SDS011;10873;51.132;16.848;2023-02-15T07:24:05;36.70;;;25.40;;
21424;SDS011;10873;51.132;16.848;2023-02-15T07:26:31;34.50;;;24.45;;
21424;SDS011;10873;51.132;16.848;2023-02-15T07:28:59;29.42;;;21.48;;
21424;SDS011;10873;51.132;16.848;2023-02-15T07:31:25;28.23;;;21.55;;
21424;SDS011;10873;51.132;16.848;2023-02-15T07:33:51;30.30;;;20.90;;
21424;SDS011;10873;51.132;16.848;2023-02-15T07:36:17;28.58;;;20.10;;
21424;SDS011;10873;51.132;16.848;2023-02-15T07:38:43;28.35;;;19.55;;
21424;SDS011;10873;51.132;16.848;2023-02-15T07:41:11;27.27;;;19.17;;
21424;SDS011;10873;51.132;16.848;2023-02-15T07:43:39;26.45;;;19.50;;
21424;SDS011;10873;51.132;16.848;2023-02-15T07:46:08;23.48;;;17.58;;
21424;SDS011;10873;51.132;16.848;2023-02-15T07:48:37;22.55;;;16.70;;
21424;SDS011;10873;51.132;16.848;2023-02-15T07:51:04;23.88;;;16.75;;
21424;SDS011;10873;51.132;16.848;2023-02-15T07:53:31;25.17;;;16.50;;
21424;SDS011;10873;51.132;16.848;2023-02-15T07:55:58;22.30;;;16.88;;
21424;SDS011;10873;51.132;16.848;2023-02-15T07:58:25;22.70;;;17.02;;
21424;SDS011;10873;51.132;16.848;2023-02-15T08:01:12;23.10;;;16.63;;
21424;SDS011;10873;51.132;16.848;2023-02-15T08:03:38;22.52;;;16.55;;
21424;SDS011;10873;51.132;16.848;2023-02-15T08:06:04;21.38;;;15.98;;
21424;SDS011;10873;51.132;16.848;2023-02-15T08:08:32;19.67;;;15.57;;
21424;SDS011;10873;51.132;16.848;2023-02-15T08:10:59;19.95;;;14.85;;
21424;SDS011;10873;51.132;16.848;2023-02-15T08:13:45;20.17;;;16.20;;
21424;SDS011;10873;51.132;16.848;2023-02-15T08:16:23;20.45;;;15.25;;
21424;SDS011;10873;51.132;16.848;2023-02-15T08:18:50;19.42;;;15.35;;
21424;SDS011;10873;51.132;16.848;2023-02-15T08:21:16;18.10;;;14.98;;
21424;SDS011;10873;51.132;16.848;2023-02-15T08:23:43;19.02;;;14.55;;
21424;SDS011;10873;51.132;16.848;2023-02-15T08:26:09;21.30;;;14.13;;
21424;SDS011;10873;51.132;16.848;2023-02-15T08:28:35;17.67;;;14.43;;
21424;SDS011;10873;51.132;16.848;2023-02-15T08:31:05;18.83;;;14.75;;
21424;SDS011;10873;51.132;16.848;2023-02-15T08:33:33;21.38;;;14.43;;
21424;SDS011;10873;51.132;16.848;2023-02-15T08:36:02;18.55;;;14.30;;
21424;SDS011;10873;51.132;16.848;2023-02-15T08:38:29;19.83;;;14.50;;
21424;SDS011;10873;51.132;16.848;2023-02-15T08:40:55;18.33;;;13.73;;
21424;SDS011;10873;51.132;16.848;2023-02-15T08:43:22;18.92;;;13.70;;
21424;SDS011;10873;51.132;16.848;2023-02-15T08:45:48;18.08;;;13.98;;
21424;SDS011;10873;51.132;16.848;2023-02-15T08:48:14;18.48;;;12.88;;
21424;SDS011;10873;51.132;16.848;2023-02-15T08:50:41;16.65;;;13.35;;
21424;SDS011;10873;51.132;16.848;2023-02-15T08:53:07;17.75;;;13.25;;
21424;SDS011;10873;51.132;16.848;2023-02-15T08:55:33;15.77;;;12.73;;
21424;SDS011;10873;51.132;16.848;2023-02-15T08:57:59;16.05;;;12.50;;
21424;SDS011;10873;51.132;16.848;2023-02-15T09:00:25;18.52;;;13.38;;
21424;SDS011;10873;51.132;16.848;2023-02-15T09:02:52;19.00;;;13.05;;
21424;SDS011;10873;51.132;16.848;2023-02-15T09:05:17;18.45;;;12.82;;
21424;SDS011;10873;51.132;16.848;2023-02-15T09:07:45;16.10;;;12.43;;
21424;SDS011;10873;51.132;16.848;2023-02-15T09:10:11;16.38;;;12.68;;
21424;SDS011;10873;51.132;16.848;2023-02-15T09:12:37;16.70;;;12.45;;
21424;SDS011;10873;51.132;16.848;2023-02-15T09:15:03;16.73;;;11.75;;
21424;SDS011;10873;51.132;16.848;2023-02-15T09:17:29;17.55;;;12.85;;
21424;SDS011;10873;51.132;16.848;2023-02-15T09:19:55;16.52;;;12.32;;
21424;SDS011;10873;51.132;16.848;2023-02-15T09:22:22;17.45;;;12.40;;
21424;SDS011;10873;51.132;16.848;2023-02-15T09:24:49;16.13;;;12.68;;
21424;SDS011;10873;51.132;16.848;2023-02-15T09:27:15;17.80;;;12.25;;
21424;SDS011;10873;51.132;16.848;2023-02-15T09:29:41;16.42;;;12.07;;
21424;SDS011;10873;51.132;16.848;2023-02-15T09:32:07;14.50;;;11.88;;
21424;SDS011;10873;51.132;16.848;2023-02-15T09:34:33;15.73;;;12.15;;
21424;SDS011;10873;51.132;16.848;2023-02-15T09:36:59;16.55;;;11.88;;
21424;SDS011;10873;51.132;16.848;2023-02-15T09:39:25;17.42;;;12.68;;
21424;SDS011;10873;51.132;16.848;2023-02-15T09:42:12;15.93;;;12.27;;
21424;SDS011;10873;51.132;16.848;2023-02-15T09:45:05;17.10;;;12.70;;
21424;SDS011;10873;51.132;16.848;2023-02-15T09:48:04;19.23;;;12.80;;
21424;SDS011;10873;51.132;16.848;2023-02-15T09:50:49;17.52;;;11.82;;
21424;SDS011;10873;51.132;16.848;2023-02-15T09:53:31;15.43;;;11.85;;
21424;SDS011;10873;51.132;16.848;2023-02-15T09:56:13;14.90;;;11.80;;
21424;SDS011;10873;51.132;16.848;2023-02-15T09:58:49;14.30;;;11.30;;
21424;SDS011;10873;51.132;16.848;2023-02-15T10:01:25;15.65;;;11.63;;
21424;SDS011;10873;51.132;16.848;2023-02-15T10:04:05;15.75;;;12.07;;
21424;SDS011;10873;51.132;16.848;2023-02-15T10:06:46;15.82;;;12.35;;
21424;SDS011;10873;51.132;16.848;2023-02-15T10:09:29;16.35;;;12.43;;
21424;SDS011;10873;51.132;16.848;2023-02-15T10:12:11;15.63;;;12.20;;
21424;SDS011;10873;51.132;16.848;2023-02-15T10:14:57;15.70;;;11.82;;
21424;SDS011;10873;51.132;16.848;2023-02-15T10:17:39;16.40;;;12.70;;
21424;SDS011;10873;51.132;16.848;2023-02-15T10:20:19;15.98;;;12.10;;
21424;SDS011;10873;51.132;16.848;2023-02-15T10:22:58;15.10;;;12.10;;
21424;SDS011;10873;51.132;16.848;2023-02-15T10:25:40;14.00;;;11.82;;
21424;SDS011;10873;51.132;16.848;2023-02-15T10:28:13;15.88;;;11.98;;
21424;SDS011;10873;51.132;16.848;2023-02-15T10:30:46;15.63;;;12.45;;
21424;SDS011;10873;51.132;16.848;2023-02-15T10:33:15;15.57;;;12.20;;
21424;SDS011;10873;51.132;16.848;2023-02-15T10:35:54;13.82;;;11.18;;
21424;SDS011;10873;51.132;16.848;2023-02-15T10:38:27;15.35;;;11.82;;
21424;SDS011;10873;51.132;16.848;2023-02-15T10:41:04;13.05;;;10.85;;
21424;SDS011;10873;51.132;16.848;2023-02-15T10:43:41;15.38;;;11.02;;
21424;SDS011;10873;51.132;16.848;2023-02-15T10:46:19;15.88;;;11.20;;
21424;SDS011;10873;51.132;16.848;2023-02-15T10:49:01;15.13;;;11.82;;
21424;SDS011;10873;51.132;16.848;2023-02-15T10:51:47;14.65;;;11.45;;
21424;SDS011;10873;51.132;16.848;2023-02-15T10:54:26;17.58;;;11.00;;
21424;SDS011;10873;51.132;16.848;2023-02-15T10:57:02;14.55;;;10.90;;
21424;SDS011;10873;51.132;16.848;2023-02-15T10:59:38;14.35;;;11.63;;
21424;SDS011;10873;51.132;16.848;2023-02-15T11:02:22;14.52;;;11.60;;
21424;SDS011;10873;51.132;16.848;2023-02-15T11:04:58;15.73;;;11.23;;
21424;SDS011;10873;51.132;16.848;2023-02-15T11:07:34;15.50;;;11.57;;
21424;SDS011;10873;51.132;16.848;2023-02-15T11:10:05;14.85;;;11.40;;
21424;SDS011;10873;51.132;16.848;2023-02-15T11:12:47;15.63;;;11.38;;
21424;SDS011;10873;51.132;16.848;2023-02-15T11:15:15;15.30;;;11.15;;
21424;SDS011;10873;51.132;16.848;2023-02-15T11:17:47;13.45;;;10.77;;
21424;SDS011;10873;51.132;16.848;2023-02-15T11:20:17;13.98;;;11.27;;
21424;SDS011;10873;51.132;16.848;2023-02-15T11:22:49;15.63;;;11.25;;
21424;SDS011;10873;51.132;16.848;2023-02-15T11:25:28;15.45;;;10.88;;
21424;SDS011;10873;51.132;16.848;2023-02-15T11:27:57;16.05;;;11.32;;
21424;SDS011;10873;51.132;16.848;2023-02-15T11:30:24;16.30;;;11.40;;
21424;SDS011;10873;51.132;16.848;2023-02-15T11:32:55;16.55;;;11.30;;
21424;SDS011;10873;51.132;16.848;2023-02-15T11:35:25;15.43;;;10.70;;
21424;SDS011;10873;51.132;16.848;2023-02-15T11:37:57;15.95;;;11.30;;
21424;SDS011;10873;51.132;16.848;2023-02-15T11:40:30;15.55;;;11.02;;
21424;SDS011;10873;51.132;16.848;2023-02-15T11:43:00;16.95;;;11.40;;
21424;SDS011;10873;51.132;16.848;2023-02-15T11:45:32;16.05;;;11.10;;
21424;SDS011;10873;51.132;16.848;2023-02-15T11:48:01;16.27;;;11.90;;
21424;SDS011;10873;51.132;16.848;2023-02-15T11:50:34;14.70;;;10.68;;
21424;SDS011;10873;51.132;16.848;2023-02-15T11:53:02;13.30;;;11.15;;
21424;SDS011;10873;51.132;16.848;2023-02-15T11:55:30;14.32;;;11.40;;
21424;SDS011;10873;51.132;16.848;2023-02-15T11:57:59;15.90;;;11.07;;
21424;SDS011;10873;51.132;16.848;2023-02-15T12:00:31;16.48;;;11.50;;
21424;SDS011;10873;51.132;16.848;2023-02-15T12:03:03;14.52;;;11.75;;
21424;SDS011;10873;51.132;16.848;2023-02-15T12:05:39;15.70;;;11.63;;
21424;SDS011;10873;51.132;16.848;2023-02-15T12:08:10;15.15;;;11.75;;
21424;SDS011;10873;51.132;16.848;2023-02-15T12:10:42;17.17;;;11.90;;
21424;SDS011;10873;51.132;16.848;2023-02-15T12:13:16;16.85;;;11.35;;
21424;SDS011;10873;51.132;16.848;2023-02-15T12:15:44;15.68;;;11.77;;
21424;SDS011;10873;51.132;16.848;2023-02-15T12:18:18;15.73;;;11.38;;
21424;SDS011;10873;51.132;16.848;2023-02-15T12:20:47;14.48;;;11.20;;
21424;SDS011;10873;51.132;16.848;2023-02-15T12:23:15;15.05;;;11.88;;
21424;SDS011;10873;51.132;16.848;2023-02-15T12:25:43;16.25;;;11.52;;
21424;SDS011;10873;51.132;16.848;2023-02-15T12:28:21;19.17;;;12.00;;
21424;SDS011;10873;51.132;16.848;2023-02-15T12:30:50;14.55;;;11.40;;
21424;SDS011;10873;51.132;16.848;2023-02-15T12:33:23;17.67;;;11.68;;
21424;SDS011;10873;51.132;16.848;2023-02-15T12:35:54;16.55;;;12.10;;
21424;SDS011;10873;51.132;16.848;2023-02-15T12:38:25;16.17;;;12.35;;
21424;SDS011;10873;51.132;16.848;2023-02-15T12:40:56;17.52;;;11.63;;
21424;SDS011;10873;51.132;16.848;2023-02-15T12:43:25;18.38;;;12.10;;
21424;SDS011;10873;51.132;16.848;2023-02-15T12:45:52;20.25;;;14.68;;
21424;SDS011;10873;51.132;16.848;2023-02-15T12:48:19;27.85;;;18.27;;
21424;SDS011;10873;51.132;16.848;2023-02-15T12:50:47;24.75;;;18.50;;
21424;SDS011;10873;51.132;16.848;2023-02-15T12:53:15;29.90;;;19.77;;
21424;SDS011;10873;51.132;16.848;2023-02-15T12:55:49;24.05;;;17.75;;
21424;SDS011;10873;51.132;16.848;2023-02-15T12:58:17;25.70;;;17.83;;
21424;SDS011;10873;51.132;16.848;2023-02-15T13:00:45;25.00;;;17.27;;
21424;SDS011;10873;51.132;16.848;2023-02-15T13:03:15;22.30;;;16.75;;
21424;SDS011;10873;51.132;16.848;2023-02-15T13:05:43;24.40;;;17.02;;
21424;SDS011;10873;51.132;16.848;2023-02-15T13:08:13;25.80;;;17.42;;
21424;SDS011;10873;51.132;16.848;2023-02-15T13:10:42;26.92;;;17.33;;
21424;SDS011;10873;51.132;16.848;2023-02-15T13:13:20;24.70;;;17.77;;
21424;SDS011;10873;51.132;16.848;2023-02-15T13:15:49;26.50;;;17.80;;
21424;SDS011;10873;51.132;16.848;2023-02-15T13:18:19;27.10;;;18.08;;
21424;SDS011;10873;51.132;16.848;2023-02-15T13:20:54;26.65;;;17.60;;
21424;SDS011;10873;51.132;16.848;2023-02-15T13:23:24;23.33;;;16.05;;
21424;SDS011;10873;51.132;16.848;2023-02-15T13:25:55;23.08;;;18.25;;
21424;SDS011;10873;51.132;16.848;2023-02-15T13:28:24;21.58;;;16.30;;
21424;SDS011;10873;51.132;16.848;2023-02-15T13:30:56;22.00;;;15.82;;
21424;SDS011;10873;51.132;16.848;2023-02-15T13:33:23;23.02;;;15.05;;
21424;SDS011;10873;51.132;16.848;2023-02-15T13:35:56;28.63;;;16.38;;
21424;SDS011;10873;51.132;16.848;2023-02-15T13:38:36;22.65;;;15.77;;
21424;SDS011;10873;51.132;16.848;2023-02-15T13:41:11;21.15;;;16.00;;
21424;SDS011;10873;51.132;16.848;2023-02-15T13:43:43;28.65;;;15.75;;
21424;SDS011;10873;51.132;16.848;2023-02-15T13:46:19;24.50;;;15.38;;
21424;SDS011;10873;51.132;16.848;2023-02-15T13:49:03;23.42;;;15.60;;
21424;SDS011;10873;51.132;16.848;2023-02-15T13:51:40;24.95;;;17.20;;
21424;SDS011;10873;51.132;16.848;2023-02-15T13:54:26;31.27;;;18.42;;
21424;SDS011;10873;51.132;16.848;2023-02-15T13:57:01;25.75;;;19.27;;
21424;SDS011;10873;51.132;16.848;2023-02-15T13:59:47;27.33;;;19.58;;
21424;SDS011;10873;51.132;16.848;2023-02-15T14:05:13;26.13;;;18.67;;
21424;SDS011;10873;51.132;16.848;2023-02-15T14:07:54;23.88;;;17.70;;
21424;SDS011;10873;51.132;16.848;2023-02-15T14:10:34;21.20;;;16.10;;
21424;SDS011;10873;51.132;16.848;2023-02-15T14:16:07;28.60;;;17.92;;
21424;SDS011;10873;51.132;16.848;2023-02-15T14:18:39;24.70;;;16.77;;
21424;SDS011;10873;51.132;16.848;2023-02-15T14:21:09;34.08;;;17.05;;
21424;SDS011;10873;51.132;16.848;2023-02-15T14:23:50;25.00;;;15.65;;
21424;SDS011;10873;51.132;16.848;2023-02-15T14:26:27;22.58;;;14.35;;
21424;SDS011;10873;51.132;16.848;2023-02-15T14:29:04;20.80;;;14.55;;
21424;SDS011;10873;51.132;16.848;2023-02-15T14:31:41;19.75;;;13.50;;
21424;SDS011;10873;51.132;16.848;2023-02-15T14:34:17;21.02;;;13.82;;
21424;SDS011;10873;51.132;16.848;2023-02-15T14:36:47;19.13;;;14.15;;
21424;SDS011;10873;51.132;16.848;2023-02-15T14:39:16;18.38;;;13.70;;
21424;SDS011;10873;51.132;16.848;2023-02-15T14:42:11;19.17;;;13.57;;
21424;SDS011;10873;51.132;16.848;2023-02-15T14:44:42;17.83;;;13.68;;